Time;durP1;ratioP1;P1;durP2;ratioP2;P2;SDS_P1;SDS_P2;PMS_P1;PMS_P2;Temp;Humidity;BMP_temperature;BMP_pressure;BME280_temperature;BME280_humidity;BME280_pressure;Samples;Min_cycle;Max_cycle;Signal;HPM_P1;HPM_P2
2021/06/11 00:00:10;;;;;;;7.93;2.85;;;;;;;;;;6970083;28;20048;-81
2021/06/11 00:03:31;;;;;;;;;;;;;;;;;;6967728;28;20052;-83
2021/06/11 00:06:51;;;;;;;6.00;3.20;;;;;;;;;;6969127;28;20367;-84
2021/06/11 00:10:13;;;;;;;4.43;2.90;;;;;;;;;;6968785;28;20120;-81
2021/06/11 00:22:07;;;;;;;5.15;2.50;;;;;;;;;;6920820;28;20405;-86
2021/06/11 00:25:28;;;;;;;4.70;3.40;;;;;;;;;;6968128;28;20546;-86
2021/06/11 00:28:48;;;;;;;4.72;3.25;;;;;;;;;;6969581;28;20045;-86
2021/06/11 00:32:09;;;;;;;4.63;3.13;;;;;;;;;;6969375;28;20049;-85
2021/06/11 00:35:29;;;;;;;11.70;2.88;;;;;;;;;;6967418;28;20500;-86
2021/06/11 00:38:50;;;;;;;4.95;3.10;;;;;;;;;;6969326;28;20045;-86
2021/06/11 00:42:10;;;;;;;8.88;2.95;;;;;;;;;;6950740;28;20103;-86
2021/06/11 00:45:30;;;;;;;8.13;3.00;;;;;;;;;;6940851;28;20072;-86
2021/06/11 00:48:51;;;;;;;10.35;3.13;;;;;;;;;;6967319;28;20146;-85
2021/06/11 00:52:11;;;;;;;3.78;2.50;;;;;;;;;;6950825;28;20041;-84
2021/06/11 00:55:32;;;;;;;5.03;2.70;;;;;;;;;;6966619;28;20116;-84
2021/06/11 00:58:52;;;;;;;3.17;2.40;;;;;;;;;;6967995;28;20143;-84
2021/06/11 01:02:15;;;;;;;3.13;2.55;;;;;;;;;;6968435;28;20409;-85
2021/06/11 01:05:35;;;;;;;4.53;3.20;;;;;;;;;;6963041;28;20124;-84
2021/06/11 01:08:56;;;;;;;4.50;3.08;;;;;;;;;;6961588;28;20041;-84
2021/06/11 01:12:17;;;;;;;4.25;2.38;;;;;;;;;;6950930;28;20056;-84
2021/06/11 01:15:38;;;;;;;4.72;3.22;;;;;;;;;;6941744;28;20049;-85
2021/06/11 01:18:58;;;;;;;5.47;2.90;;;;;;;;;;6950314;28;20068;-86
2021/06/11 01:22:56;;;;;;;5.32;2.92;;;;;;;;;;6967759;28;20095;-85
2021/06/11 01:26:30;;;;;;;3.22;2.50;;;;;;;;;;6971833;23;20061;-85
2021/06/11 01:29:53;;;;;;;5.75;2.63;;;;;;;;;;6984518;28;20044;-85
2021/06/11 01:33:14;;;;;;;3.60;2.72;;;;;;;;;;6976379;28;20043;-85
2021/06/11 01:36:40;;;;;;;6.90;3.22;;;;;;;;;;6994193;28;20056;-86
2021/06/11 01:40:05;;;;;;;3.17;2.88;;;;;;;;;;6964346;28;20071;-85
2021/06/11 01:43:26;;;;;;;4.97;2.60;;;;;;;;;;6991816;28;20053;-85
2021/06/11 01:46:48;;;;;;;6.03;3.03;;;;;;;;;;6995828;28;20162;-85
2021/06/11 01:50:10;;;;;;;3.53;2.38;;;;;;;;;;6992080;28;20117;-86
2021/06/11 01:53:31;;;;;;;7.05;2.70;;;;;;;;;;6994106;28;20052;-87
2021/06/11 01:56:52;;;;;;;3.15;2.50;;;;;;;;;;6994197;28;20064;-87
2021/06/11 02:00:13;;;;;;;3.10;2.60;;;;;;;;;;6988564;28;20044;-86
2021/06/11 02:03:34;;;;;;;3.17;2.58;;;;;;;;;;6975478;28;20060;-86
2021/06/11 02:06:55;;;;;;;3.20;2.33;;;;;;;;;;6984486;28;20044;-86
2021/06/11 02:10:18;;;;;;;2.58;2.38;;;;;;;;;;6997457;28;20048;-87
2021/06/11 02:13:41;;;;;;;3.15;2.45;;;;;;;;;;6998631;28;20131;-87
2021/06/11 02:17:03;;;;;;;4.00;2.58;;;;;;;;;;6998394;28;20056;-87
2021/06/11 02:20:25;;;;;;;2.80;2.20;;;;;;;;;;6992409;28;20397;-87
2021/06/11 02:23:46;;;;;;;5.82;2.42;;;;;;;;;;6984219;28;20049;-86
2021/06/11 02:27:10;;;;;;;2.45;2.25;;;;;;;;;;6997538;28;20063;-87
2021/06/11 02:30:30;;;;;;;3.03;2.47;;;;;;;;;;6994462;28;20080;-88
2021/06/11 02:33:51;;;;;;;3.67;2.83;;;;;;;;;;6995425;28;20131;-86
2021/06/11 02:37:11;;;;;;;3.10;2.65;;;;;;;;;;6998259;28;20095;-83
2021/06/11 02:40:32;;;;;;;2.72;2.45;;;;;;;;;;6998941;28;20048;-83
2021/06/11 02:43:53;;;;;;;4.38;2.20;;;;;;;;;;6995396;28;20080;-82
2021/06/11 02:47:19;;;;;;;6.65;2.50;;;;;;;;;;6998252;28;20542;-83
2021/06/11 02:50:45;;;;;;;4.80;2.45;;;;;;;;;;6998287;28;20110;-83
2021/06/11 02:54:17;;;;;;;2.30;2.10;;;;;;;;;;6983748;28;20048;-85
2021/06/11 02:57:50;;;;;;;2.53;2.33;;;;;;;;;;6983967;28;20056;-83
2021/06/11 03:01:12;;;;;;;2.45;2.08;;;;;;;;;;6992987;28;20454;-84
2021/06/11 03:04:33;;;;;;;4.75;2.60;;;;;;;;;;6971257;28;20045;-84
2021/06/11 03:07:56;;;;;;;4.97;2.20;;;;;;;;;;6969479;28;20049;-84
2021/06/11 03:11:20;;;;;;;2.67;2.38;;;;;;;;;;6960594;28;20083;-84
2021/06/11 03:14:40;;;;;;;2.90;2.08;;;;;;;;;;6995191;28;20466;-85
2021/06/11 03:18:09;;;;;;;2.30;2.10;;;;;;;;;;6997579;28;20088;-84
2021/06/11 03:21:36;;;;;;;3.00;2.42;;;;;;;;;;6982871;28;20057;-85
2021/06/11 03:25:03;;;;;;;2.97;2.33;;;;;;;;;;6993315;28;20045;-86
2021/06/11 03:28:46;;;;;;;2.78;2.30;;;;;;;;;;6998223;28;20056;-86
2021/06/11 03:32:13;;;;;;;4.07;2.50;;;;;;;;;;6975342;28;20128;-83
2021/06/11 03:35:47;;;;;;;2.95;2.28;;;;;;;;;;6995041;28;20051;-84
2021/06/11 03:39:15;;;;;;;3.10;2.17;;;;;;;;;;6997276;28;20049;-84
2021/06/11 03:42:37;;;;;;;2.30;2.00;;;;;;;;;;6987426;28;20091;-84
2021/06/11 03:45:58;;;;;;;3.40;2.30;;;;;;;;;;6982950;28;20560;-85
2021/06/11 03:49:20;;;;;;;6.47;2.05;;;;;;;;;;6997636;28;20458;-86
2021/06/11 03:52:41;;;;;;;5.15;2.78;;;;;;;;;;6984301;28;20555;-85
2021/06/11 03:56:04;;;;;;;3.58;2.47;;;;;;;;;;6982069;28;21637;-85
2021/06/11 03:59:25;;;;;;;4.90;2.50;;;;;;;;;;6995908;28;20049;-84
2021/06/11 04:02:46;;;;;;;2.97;2.20;;;;;;;;;;6982328;28;20080;-84
2021/06/11 04:06:10;;;;;;;3.25;2.38;;;;;;;;;;6979193;28;20051;-84
2021/06/11 04:09:47;;;;;;;3.63;2.10;;;;;;;;;;6996206;28;20606;-84
2021/06/11 04:13:20;;;;;;;3.33;2.22;;;;;;;;;;6974386;28;20041;-85
2021/06/11 04:16:45;;;;;;;2.63;2.10;;;;;;;;;;6977165;28;20607;-84
2021/06/11 04:20:08;;;;;;;2.03;1.90;;;;;;;;;;6977980;28;20139;-84
2021/06/11 04:23:34;;;;;;;2.30;2.10;;;;;;;;;;6995174;28;20041;-84
2021/06/11 04:26:56;;;;;;;2.22;2.03;;;;;;;;;;6990593;28;20079;-84
2021/06/11 04:30:17;;;;;;;3.08;2.20;;;;;;;;;;6995413;28;20064;-84
2021/06/11 04:33:37;;;;;;;3.15;2.05;;;;;;;;;;6994329;28;20047;-84
2021/06/11 04:36:58;;;;;;;2.25;1.98;;;;;;;;;;7011057;28;20385;-84
2021/06/11 04:40:18;;;;;;;2.97;2.40;;;;;;;;;;6995316;28;20506;-85
2021/06/11 04:43:39;;;;;;;2.03;1.70;;;;;;;;;;6979765;28;20053;-85
2021/06/11 04:46:59;;;;;;;2.58;2.00;;;;;;;;;;6968868;28;20080;-86
2021/06/11 04:50:20;;;;;;;2.67;2.17;;;;;;;;;;6967663;28;20087;-86
2021/06/11 04:53:40;;;;;;;2.13;1.88;;;;;;;;;;6965695;28;20131;-85
2021/06/11 04:57:01;;;;;;;2.47;2.20;;;;;;;;;;6968476;28;20135;-85
2021/06/11 05:00:24;;;;;;;3.28;2.00;;;;;;;;;;6991754;28;20082;-84
2021/06/11 05:03:44;;;;;;;2.30;2.08;;;;;;;;;;6979316;28;20116;-87
2021/06/11 05:07:05;;;;;;;2.40;2.20;;;;;;;;;;6989320;28;20467;-85
2021/06/11 05:10:25;;;;;;;2.17;1.55;;;;;;;;;;6996350;28;20487;-84
2021/06/11 05:13:46;;;;;;;2.25;2.05;;;;;;;;;;6971963;28;20473;-86
2021/06/11 05:17:06;;;;;;;2.15;1.83;;;;;;;;;;7001560;28;20048;-86
2021/06/11 05:20:26;;;;;;;2.60;2.08;;;;;;;;;;6998844;28;20044;-83
2021/06/11 05:23:47;;;;;;;4.70;1.88;;;;;;;;;;6988378;28;20068;-83
2021/06/11 05:27:07;;;;;;;3.03;1.88;;;;;;;;;;6987786;28;20078;-88
2021/06/11 05:30:28;;;;;;;2.70;2.47;;;;;;;;;;6983817;28;20063;-84
2021/06/11 05:33:49;;;;;;;2.40;1.85;;;;;;;;;;7001053;28;20094;-84
2021/06/11 05:37:10;;;;;;;2.47;2.28;;;;;;;;;;6990534;28;20071;-84
2021/06/11 05:40:35;;;;;;;3.63;2.40;;;;;;;;;;7002682;28;20126;-81
2021/06/11 05:43:55;;;;;;;3.22;2.33;;;;;;;;;;6983211;28;20048;-81
2021/06/11 05:47:15;;;;;;;3.53;3.33;;;;;;;;;;6999459;28;20106;-81
2021/06/11 05:50:36;;;;;;;4.25;2.90;;;;;;;;;;6994069;28;20123;-81
2021/06/11 05:53:58;;;;;;;4.05;3.13;;;;;;;;;;6975591;28;20043;-80
2021/06/11 05:57:18;;;;;;;3.83;2.53;;;;;;;;;;6989588;28;20056;-85
2021/06/11 06:00:39;;;;;;;2.75;2.00;;;;;;;;;;6986494;28;20045;-86
2021/06/11 06:03:59;;;;;;;2.30;1.90;;;;;;;;;;7004377;28;20570;-84
2021/06/11 06:07:20;;;;;;;2.08;1.88;;;;;;;;;;6961537;28;20064;-82
2021/06/11 06:10:41;;;;;;;3.83;1.55;;;;;;;;;;6979254;28;20048;-82
2021/06/11 06:14:01;;;;;;;2.30;2.10;;;;;;;;;;6969399;28;20117;-85
2021/06/11 06:17:22;;;;;;;4.05;1.90;;;;;;;;;;6994678;28;20049;-84
2021/06/11 06:20:46;;;;;;;2.08;1.88;;;;;;;;;;6995052;28;20154;-84
2021/06/11 06:24:08;;;;;;;1.95;1.80;;;;;;;;;;6979871;28;20046;-84
2021/06/11 06:27:29;;;;;;;1.83;1.73;;;;;;;;;;6994811;28;20044;-84
2021/06/11 06:30:49;;;;;;;2.67;2.00;;;;;;;;;;6994561;28;20098;-84
2021/06/11 06:34:10;;;;;;;2.67;2.00;;;;;;;;;;6992792;28;20054;-84
2021/06/11 06:37:30;;;;;;;2.17;1.90;;;;;;;;;;6994259;28;20090;-84
2021/06/11 06:40:59;;;;;;;4.43;2.10;;;;;;;;;;7008436;28;20433;-84
2021/06/11 06:44:19;;;;;;;;;;;;;;;;;;6977257;28;20380;-84
2021/06/11 06:47:44;;;;;;;2.47;1.90;;;;;;;;;;6966436;28;19956;-84
2021/06/11 06:51:05;;;;;;;2.63;1.98;;;;;;;;;;6997324;28;20052;-84
2021/06/11 06:54:25;;;;;;;1.88;1.77;;;;;;;;;;6995515;28;20411;-84
2021/06/11 06:57:45;;;;;;;1.90;1.80;;;;;;;;;;6999095;28;20045;-84
2021/06/11 07:01:06;;;;;;;2.20;1.98;;;;;;;;;;6998680;28;20071;-84
2021/06/11 07:04:30;;;;;;;2.38;1.63;;;;;;;;;;6993399;28;20086;-83
2021/06/11 07:07:50;;;;;;;1.95;1.60;;;;;;;;;;6998590;28;20079;-83
2021/06/11 07:11:11;;;;;;;2.33;1.73;;;;;;;;;;6998998;28;20045;-83
2021/06/11 07:14:31;;;;;;;2.17;1.95;;;;;;;;;;6993655;28;20059;-84
2021/06/11 07:17:55;;;;;;;1.70;1.60;;;;;;;;;;6998948;28;20048;-84
2021/06/11 07:21:16;;;;;;;1.80;1.70;;;;;;;;;;6998496;28;20063;-84
2021/06/11 07:24:37;;;;;;;5.18;1.83;;;;;;;;;;6986487;28;20072;-84
2021/06/11 07:27:57;;;;;;;2.38;1.50;;;;;;;;;;6997879;28;20507;-83
2021/06/11 07:31:18;;;;;;;2.63;1.70;;;;;;;;;;6997311;28;20051;-81
2021/06/11 07:34:39;;;;;;;2.45;1.70;;;;;;;;;;6985446;28;20373;-82
2021/06/11 07:37:59;;;;;;;2.55;1.75;;;;;;;;;;6998210;28;20106;-82
2021/06/11 07:41:21;;;;;;;2.63;1.70;;;;;;;;;;6998292;28;20057;-82
2021/06/11 07:44:42;;;;;;;2.25;1.80;;;;;;;;;;6996464;28;20047;-84
2021/06/11 07:48:02;;;;;;;4.47;1.95;;;;;;;;;;6996845;28;20131;-82
2021/06/11 07:51:23;;;;;;;3.08;2.15;;;;;;;;;;6997723;28;20403;-83
2021/06/11 07:54:43;;;;;;;6.45;1.75;;;;;;;;;;6989390;28;20048;-83
2021/06/11 07:58:03;;;;;;;1.73;1.63;;;;;;;;;;6997737;28;20101;-82
2021/06/11 08:01:26;;;;;;;1.65;1.55;;;;;;;;;;6997990;28;20131;-82
2021/06/11 08:04:47;;;;;;;2.20;2.00;;;;;;;;;;6986720;28;20132;-83
2021/06/11 08:08:07;;;;;;;8.13;2.00;;;;;;;;;;6996671;28;20086;-83
2021/06/11 08:11:28;;;;;;;2.17;1.70;;;;;;;;;;6997338;28;20088;-83
2021/06/11 08:14:48;;;;;;;2.35;1.58;;;;;;;;;;6983400;28;20036;-83
2021/06/11 08:18:09;;;;;;;2.38;1.88;;;;;;;;;;6993165;28;20446;-82
2021/06/11 08:21:30;;;;;;;1.98;1.83;;;;;;;;;;6997228;28;20067;-83
2021/06/11 08:24:50;;;;;;;2.97;1.63;;;;;;;;;;6997482;28;20074;-82
2021/06/11 08:28:11;;;;;;;5.13;2.10;;;;;;;;;;6997067;28;20047;-86
2021/06/11 08:31:31;;;;;;;5.70;2.05;;;;;;;;;;7011197;28;20502;-86
2021/06/11 08:34:52;;;;;;;7.10;2.28;;;;;;;;;;6997572;28;20083;-85
2021/06/11 08:38:12;;;;;;;7.50;2.53;;;;;;;;;;7017163;28;20183;-85
2021/06/11 08:41:34;;;;;;;10.30;3.05;;;;;;;;;;7007549;28;20048;-86
2021/06/11 08:45:07;;;;;;;7.88;2.45;;;;;;;;;;6988297;28;20071;-85
2021/06/11 08:48:27;;;;;;;4.00;2.25;;;;;;;;;;6996875;28;20067;-86
2021/06/11 08:51:48;;;;;;;3.22;1.98;;;;;;;;;;7010595;28;20061;-86
2021/06/11 08:55:09;;;;;;;5.75;2.25;;;;;;;;;;6996643;28;20045;-86
2021/06/11 08:58:29;;;;;;;5.07;2.20;;;;;;;;;;6996235;28;20143;-85
2021/06/11 09:01:50;;;;;;;2.75;2.10;;;;;;;;;;6996424;28;20041;-85
2021/06/11 09:05:18;;;;;;;4.32;2.30;;;;;;;;;;6990252;28;20076;-87
2021/06/11 09:08:58;;;;;;;5.20;2.20;;;;;;;;;;6975092;28;20048;-86
2021/06/11 09:12:41;;;;;;;7.40;2.03;;;;;;;;;;6994453;28;20469;-86
2021/06/11 09:16:18;;;;;;;3.97;2.78;;;;;;;;;;6977892;28;20052;-86
2021/06/11 09:20:40;;;;;;;4.40;2.93;;;;;;;;;;6994764;28;20396;-84
2021/06/11 09:24:15;;;;;;;8.57;3.25;;;;;;;;;;6978853;28;20059;-84
2021/06/11 09:27:49;;;;;;;5.22;3.33;;;;;;;;;;6981952;28;20127;-88
2021/06/11 09:31:09;;;;;;;5.75;3.67;;;;;;;;;;6967173;28;20420;-87
2021/06/11 09:34:30;;;;;;;6.93;4.30;;;;;;;;;;6992855;28;20541;-87
2021/06/11 09:37:51;;;;;;;8.85;4.63;;;;;;;;;;6995358;28;20047;-88
2021/06/11 09:41:11;;;;;;;4.80;4.15;;;;;;;;;;6987127;28;20136;-88
2021/06/11 09:44:32;;;;;;;9.55;3.83;;;;;;;;;;6998359;28;20048;-88
2021/06/11 09:47:52;;;;;;;5.25;4.20;;;;;;;;;;6996725;28;20052;-88
2021/06/11 09:51:17;;;;;;;8.68;3.88;;;;;;;;;;6995309;28;20053;-89
2021/06/11 09:54:37;;;;;;;7.65;3.80;;;;;;;;;;6992266;28;20106;-87
2021/06/11 09:58:03;;;;;;;5.97;3.80;;;;;;;;;;6970463;28;20049;-88
2021/06/11 10:01:25;;;;;;;5.00;3.80;;;;;;;;;;6965810;28;20046;-88
2021/06/11 10:04:45;;;;;;;7.78;3.67;;;;;;;;;;6981259;28;20041;-87
2021/06/11 10:08:08;;;;;;;10.88;5.22;;;;;;;;;;6993808;28;20054;-84
2021/06/11 10:11:29;;;;;;;6.95;4.38;;;;;;;;;;7006300;28;20070;-84
2021/06/11 10:14:50;;;;;;;4.38;3.72;;;;;;;;;;7008139;28;20048;-84
2021/06/11 10:18:11;;;;;;;14.80;4.70;;;;;;;;;;6986615;28;20049;-83
2021/06/11 10:21:32;;;;;;;14.20;5.68;;;;;;;;;;7017454;28;20510;-84
2021/06/11 10:24:53;;;;;;;6.30;5.13;;;;;;;;;;6996362;28;20492;-83
2021/06/11 10:28:20;;;;;;;7.80;4.53;;;;;;;;;;7003069;28;20059;-82
2021/06/11 10:31:41;;;;;;;10.55;4.57;;;;;;;;;;6996077;28;20079;-82
2021/06/11 10:35:02;;;;;;;12.55;7.72;;;;;;;;;;6998575;28;20102;-84
2021/06/11 10:38:31;;;;;;;9.73;5.53;;;;;;;;;;6990412;28;20049;-82
2021/06/11 10:42:08;;;;;;;7.47;4.07;;;;;;;;;;6995782;28;20186;-83
2021/06/11 10:45:43;;;;;;;7.13;5.03;;;;;;;;;;6973264;28;20052;-87
2021/06/11 10:49:07;;;;;;;12.15;6.38;;;;;;;;;;6968584;28;20436;-87
2021/06/11 10:52:50;;;;;;;6.80;6.13;;;;;;;;;;6981673;28;20106;-83
2021/06/11 10:56:15;;;;;;;6.53;5.03;;;;;;;;;;6985480;28;20060;-83
2021/06/11 10:59:35;;;;;;;8.80;5.72;;;;;;;;;;6991818;28;20554;-83
2021/06/11 11:03:01;;;;;;;11.73;5.10;;;;;;;;;;6999917;28;20045;-84
2021/06/11 11:06:30;;;;;;;6.57;4.47;;;;;;;;;;7000362;28;20619;-83
2021/06/11 11:09:54;;;;;;;4.72;4.22;;;;;;;;;;7003872;28;20033;-83
2021/06/11 11:13:26;;;;;;;3.65;3.35;;;;;;;;;;6990624;28;20076;-83
2021/06/11 11:16:57;;;;;;;7.70;3.97;;;;;;;;;;6999299;28;20060;-83
2021/06/11 11:20:29;;;;;;;5.10;3.95;;;;;;;;;;6992614;28;20423;-82
2021/06/11 11:23:53;;;;;;;5.05;4.53;;;;;;;;;;6998011;28;20037;-83
2021/06/11 11:27:14;;;;;;;8.07;4.65;;;;;;;;;;6996358;28;20045;-83
2021/06/11 11:30:36;;;;;;;9.50;3.95;;;;;;;;;;6995620;28;20139;-83
2021/06/11 11:33:56;;;;;;;4.75;3.22;;;;;;;;;;6983248;28;20045;-83
2021/06/11 11:37:17;;;;;;;6.45;3.75;;;;;;;;;;6998368;28;20131;-83
2021/06/11 11:40:38;;;;;;;12.10;4.03;;;;;;;;;;6991493;28;20052;-83
2021/06/11 11:43:58;;;;;;;4.85;3.75;;;;;;;;;;7007385;28;20040;-84
2021/06/11 11:47:19;;;;;;;7.40;3.90;;;;;;;;;;6996435;28;20101;-83
2021/06/11 11:50:40;;;;;;;5.43;3.33;;;;;;;;;;6981878;28;20137;-83
2021/06/11 11:54:02;;;;;;;5.45;3.40;;;;;;;;;;6986241;28;20102;-83
2021/06/11 11:57:25;;;;;;;5.28;3.40;;;;;;;;;;6996341;28;20048;-84
2021/06/11 12:00:45;;;;;;;7.18;3.88;;;;;;;;;;6998573;28;20131;-84
2021/06/11 12:04:06;;;;;;;5.85;3.97;;;;;;;;;;6995578;28;20105;-83
2021/06/11 12:07:26;;;;;;;5.05;3.17;;;;;;;;;;6996492;28;20074;-83
2021/06/11 12:10:47;;;;;;;11.18;4.03;;;;;;;;;;6991313;28;20436;-82
2021/06/11 12:14:08;;;;;;;4.20;3.35;;;;;;;;;;6986900;28;20094;-82
2021/06/11 12:17:28;;;;;;;4.97;3.40;;;;;;;;;;6989709;28;20501;-82
2021/06/11 12:20:49;;;;;;;5.55;3.75;;;;;;;;;;6989821;28;20041;-83
2021/06/11 12:24:10;;;;;;;6.57;3.50;;;;;;;;;;6997898;28;20080;-84
2021/06/11 12:27:30;;;;;;;4.35;3.40;;;;;;;;;;6979622;28;20466;-83
2021/06/11 12:30:51;;;;;;;5.57;3.58;;;;;;;;;;6997583;28;20472;-85
2021/06/11 12:34:11;;;;;;;17.92;3.83;;;;;;;;;;6990806;28;20045;-86
2021/06/11 12:37:32;;;;;;;3.88;3.25;;;;;;;;;;6996997;28;20467;-85
2021/06/11 12:40:56;;;;;;;6.22;3.50;;;;;;;;;;6993429;28;20419;-83
2021/06/11 12:44:17;;;;;;;5.55;3.35;;;;;;;;;;6995675;28;20048;-82
2021/06/11 12:47:38;;;;;;;4.03;3.50;;;;;;;;;;6992102;28;20411;-79
2021/06/11 12:50:58;;;;;;;9.02;3.30;;;;;;;;;;6991481;28;20508;-79
2021/06/11 12:54:19;;;;;;;4.90;3.45;;;;;;;;;;6996527;28;20538;-81
2021/06/11 12:57:40;;;;;;;5.20;3.35;;;;;;;;;;6996321;28;20051;-81
2021/06/11 13:01:00;;;;;;;8.10;3.60;;;;;;;;;;6983867;28;20458;-81
2021/06/11 13:04:21;;;;;;;8.00;3.33;;;;;;;;;;6997963;28;20127;-81
2021/06/11 13:07:41;;;;;;;7.13;3.42;;;;;;;;;;6998203;28;20059;-81
2021/06/11 13:11:02;;;;;;;6.10;3.70;;;;;;;;;;6987774;28;20072;-82
2021/06/11 13:14:23;;;;;;;10.25;3.60;;;;;;;;;;6991256;28;20056;-81
2021/06/11 13:17:43;;;;;;;8.68;3.40;;;;;;;;;;6996063;28;20156;-82
2021/06/11 13:21:04;;;;;;;7.65;3.83;;;;;;;;;;6989096;28;20045;-83
2021/06/11 13:24:25;;;;;;;15.25;3.95;;;;;;;;;;6989424;28;20049;-83
2021/06/11 13:27:45;;;;;;;6.32;2.58;;;;;;;;;;6975170;23;20092;-83
2021/06/11 13:31:05;;;;;;;6.55;3.22;;;;;;;;;;6967373;28;20045;-83
2021/06/11 13:34:26;;;;;;;11.93;3.30;;;;;;;;;;6968309;28;20052;-83
2021/06/11 13:37:46;;;;;;;5.53;2.92;;;;;;;;;;6967784;28;20049;-83
2021/06/11 13:41:07;;;;;;;7.25;3.78;;;;;;;;;;6949594;28;20053;-83
2021/06/11 13:44:27;;;;;;;9.80;3.63;;;;;;;;;;6968209;28;20436;-83
2021/06/11 13:48:38;;;;;;;17.45;4.43;;;;;;;;;;6634128;28;22458;-80
2021/06/11 13:51:59;;;;;;;12.45;3.55;;;;;;;;;;6962982;28;20111;-81
2021/06/11 13:55:19;;;;;;;6.05;3.17;;;;;;;;;;6967830;28;20072;-82
2021/06/11 13:58:40;;;;;;;8.05;3.03;;;;;;;;;;6965205;28;20122;-83
2021/06/11 14:02:00;;;;;;;10.48;3.38;;;;;;;;;;6966893;28;20049;-83
2021/06/11 14:05:21;;;;;;;10.60;3.25;;;;;;;;;;6976504;28;20191;-82
2021/06/11 14:08:41;;;;;;;7.78;3.33;;;;;;;;;;6967169;28;20064;-83
2021/06/11 14:12:02;;;;;;;10.25;4.15;;;;;;;;;;6966873;28;20396;-84
2021/06/11 14:15:23;;;;;;;12.75;3.60;;;;;;;;;;6965797;28;20053;-81
2021/06/11 14:18:43;;;;;;;11.15;3.70;;;;;;;;;;6965161;28;20088;-84
2021/06/11 14:22:04;;;;;;;8.27;3.10;;;;;;;;;;6967111;28;20052;-84
2021/06/11 14:25:24;;;;;;;11.65;3.35;;;;;;;;;;6966627;28;20052;-86
2021/06/11 14:28:45;;;;;;;5.10;3.25;;;;;;;;;;6967289;28;20084;-82
2021/06/11 14:32:06;;;;;;;4.78;2.92;;;;;;;;;;6966492;28;20163;-83
2021/06/11 14:35:27;;;;;;;11.15;3.30;;;;;;;;;;6966666;28;20056;-84
2021/06/11 14:38:48;;;;;;;11.15;3.65;;;;;;;;;;6963339;28;20080;-82
2021/06/11 14:42:08;;;;;;;15.45;3.55;;;;;;;;;;6964568;28;20128;-82
2021/06/11 14:45:29;;;;;;;5.78;3.08;;;;;;;;;;6965389;28;20068;-82
2021/06/11 14:48:49;;;;;;;6.20;3.15;;;;;;;;;;6965548;28;20049;-84
2021/06/11 14:52:11;;;;;;;7.32;3.08;;;;;;;;;;6966098;28;20068;-83
2021/06/11 14:55:33;;;;;;;11.93;3.63;;;;;;;;;;6965288;28;20041;-82
2021/06/11 14:58:54;;;;;;;11.75;3.45;;;;;;;;;;6966369;28;20057;-81
2021/06/11 15:02:15;;;;;;;14.00;3.22;;;;;;;;;;6961237;28;20063;-82
2021/06/11 15:05:35;;;;;;;5.63;2.92;;;;;;;;;;6963984;28;20550;-82
2021/06/11 15:08:55;;;;;;;4.97;2.80;;;;;;;;;;6966045;28;20136;-82
2021/06/11 15:12:16;;;;;;;4.78;2.70;;;;;;;;;;6962188;28;20091;-83
2021/06/11 15:15:38;;;;;;;4.93;3.10;;;;;;;;;;6970305;28;20045;-83
2021/06/11 15:18:58;;;;;;;7.60;2.85;;;;;;;;;;6977966;28;20064;-82
2021/06/11 15:22:19;;;;;;;6.18;2.70;;;;;;;;;;6969670;28;20045;-82
2021/06/11 15:25:49;;;;;;;8.90;2.92;;;;;;;;;;6968237;28;20056;-82
2021/06/11 15:29:09;;;;;;;4.50;2.83;;;;;;;;;;6975930;28;20095;-81
2021/06/11 15:32:30;;;;;;;5.88;2.90;;;;;;;;;;6965996;28;20036;-81
2021/06/11 15:35:51;;;;;;;8.73;2.92;;;;;;;;;;6969442;28;20408;-82
2021/06/11 15:39:12;;;;;;;6.55;2.90;;;;;;;;;;6968508;28;20053;-81
2021/06/11 15:42:34;;;;;;;7.30;2.83;;;;;;;;;;6967204;28;20140;-82
2021/06/11 15:45:54;;;;;;;6.07;2.78;;;;;;;;;;6968969;28;20049;-82
2021/06/11 15:49:15;;;;;;;4.47;2.50;;;;;;;;;;6968856;28;20144;-82
2021/06/11 15:52:36;;;;;;;3.90;2.83;;;;;;;;;;6964989;28;20163;-82
2021/06/11 15:55:56;;;;;;;7.63;3.00;;;;;;;;;;6966431;28;20465;-82
2021/06/11 15:59:16;;;;;;;4.28;2.40;;;;;;;;;;6967297;28;20057;-81
2021/06/11 16:02:37;;;;;;;3.28;2.38;;;;;;;;;;6964746;28;20041;-81
2021/06/11 16:05:57;;;;;;;4.18;2.20;;;;;;;;;;6976445;28;20562;-81
2021/06/11 16:09:18;;;;;;;9.10;2.80;;;;;;;;;;6965018;28;20075;-81
2021/06/11 16:12:38;;;;;;;9.45;2.55;;;;;;;;;;6972424;28;20057;-81
2021/06/11 16:15:59;;;;;;;13.05;2.60;;;;;;;;;;6968860;28;20135;-81
2021/06/11 16:19:19;;;;;;;4.45;2.65;;;;;;;;;;6969946;28;20074;-80
2021/06/11 16:22:40;;;;;;;3.97;2.33;;;;;;;;;;6969879;28;20036;-81
2021/06/11 16:26:01;;;;;;;3.65;2.40;;;;;;;;;;6982189;28;20041;-80
2021/06/11 16:29:22;;;;;;;7.32;2.53;;;;;;;;;;6968648;28;20166;-80
2021/06/11 16:32:43;;;;;;;4.28;2.53;;;;;;;;;;6969618;28;20053;-80
2021/06/11 16:36:03;;;;;;;4.03;2.60;;;;;;;;;;6971937;28;20127;-81
2021/06/11 16:39:24;;;;;;;2.50;2.22;;;;;;;;;;6978655;28;20159;-81
2021/06/11 16:42:45;;;;;;;3.17;2.10;;;;;;;;;;6970086;28;20045;-81
2021/06/11 16:46:05;;;;;;;3.85;2.53;;;;;;;;;;6969341;28;20056;-80
2021/06/11 16:49:26;;;;;;;4.32;2.63;;;;;;;;;;6969203;28;20496;-80
2021/06/11 16:52:46;;;;;;;5.22;2.50;;;;;;;;;;6973397;28;20036;-80
2021/06/11 16:56:07;;;;;;;9.23;2.88;;;;;;;;;;6969312;28;20060;-81
2021/06/11 16:59:27;;;;;;;3.78;2.70;;;;;;;;;;6967039;28;20059;-81
2021/06/11 17:02:48;;;;;;;4.10;2.92;;;;;;;;;;6980445;28;20044;-81
2021/06/11 17:06:08;;;;;;;6.32;2.63;;;;;;;;;;6968511;28;20190;-82
2021/06/11 17:09:28;;;;;;;3.15;2.85;;;;;;;;;;6967635;28;20132;-81
2021/06/11 17:12:50;;;;;;;5.90;2.80;;;;;;;;;;6968477;28;20053;-81
2021/06/11 17:16:11;;;;;;;4.20;2.83;;;;;;;;;;6967591;28;20049;-81
2021/06/11 17:19:31;;;;;;;4.38;2.78;;;;;;;;;;6968218;28;20072;-82
2021/06/11 17:22:58;;;;;;;4.00;2.65;;;;;;;;;;6962504;28;20386;-81
2021/06/11 17:26:18;;;;;;;4.68;2.90;;;;;;;;;;6958400;28;20048;-82
2021/06/11 17:29:43;;;;;;;5.72;3.00;;;;;;;;;;6968369;28;20450;-84
2021/06/11 17:33:16;;;;;;;9.05;5.75;;;;;;;;;;6966817;28;20048;-86
2021/06/11 17:36:36;;;;;;;10.00;6.38;;;;;;;;;;6966981;28;20053;-83
2021/06/11 17:39:59;;;;;;;11.60;6.97;;;;;;;;;;6964083;28;20061;-85
2021/06/11 17:43:23;;;;;;;10.43;7.20;;;;;;;;;;6961538;28;20167;-85
2021/06/11 17:46:46;;;;;;;11.10;8.20;;;;;;;;;;6972839;28;20044;-85
2021/06/11 17:50:07;;;;;;;9.52;7.10;;;;;;;;;;6960580;28;20041;-84
2021/06/11 17:53:34;;;;;;;8.13;7.15;;;;;;;;;;6970556;28;20052;-87
2021/06/11 17:56:55;;;;;;;9.23;7.30;;;;;;;;;;6963242;28;20053;-86
2021/06/11 18:00:16;;;;;;;9.63;6.25;;;;;;;;;;6971078;28;20045;-85
2021/06/11 18:03:37;;;;;;;11.73;7.60;;;;;;;;;;6966266;28;20412;-85
2021/06/11 18:07:05;;;;;;;14.85;10.23;;;;;;;;;;6966445;28;20060;-86
2021/06/11 18:10:36;;;;;;;12.93;8.82;;;;;;;;;;6965129;28;20052;-86
2021/06/11 18:13:57;;;;;;;13.30;7.35;;;;;;;;;;6965443;28;20084;-85
2021/06/11 18:17:22;;;;;;;11.18;9.93;;;;;;;;;;6965532;28;20048;-86
2021/06/11 18:20:43;;;;;;;14.13;10.40;;;;;;;;;;6963489;28;20396;-85
2021/06/11 18:24:17;;;;;;;11.23;7.20;;;;;;;;;;6966912;28;20072;-85
2021/06/11 18:27:37;;;;;;;12.30;6.68;;;;;;;;;;6960550;28;20396;-86
2021/06/11 18:31:12;;;;;;;10.18;9.20;;;;;;;;;;6962254;28;20400;-85
2021/06/11 18:34:32;;;;;;;17.20;11.98;;;;;;;;;;6952340;28;21422;-86
2021/06/11 18:37:55;;;;;;;13.95;8.30;;;;;;;;;;6949426;28;20128;-87
2021/06/11 18:41:40;;;;;;;7.25;6.20;;;;;;;;;;6953838;28;20046;-81
2021/06/11 18:45:01;;;;;;;8.77;4.70;;;;;;;;;;6953802;28;20507;-81
2021/06/11 18:51:54;;;;;;;5.53;4.68;;;;;;;;;;6968188;28;20049;-81
2021/06/11 18:55:14;;;;;;;6.70;4.15;;;;;;;;;;6979877;28;20044;-82
2021/06/11 18:58:38;;;;;;;11.25;4.38;;;;;;;;;;6988163;28;20068;-82
2021/06/11 19:02:17;;;;;;;8.40;4.80;;;;;;;;;;6974410;28;21339;-82
2021/06/11 19:05:37;;;;;;;7.25;5.00;;;;;;;;;;6977312;28;20041;-82
2021/06/11 19:08:58;;;;;;;8.23;6.28;;;;;;;;;;6989335;28;20047;-82
2021/06/11 19:12:18;;;;;;;8.27;6.32;;;;;;;;;;6964153;28;20056;-84
2021/06/11 19:15:39;;;;;;;9.15;6.10;;;;;;;;;;6956921;28;20485;-82
2021/06/11 19:19:05;;;;;;;14.57;13.07;;;;;;;;;;6966845;28;20132;-87
2021/06/11 19:22:31;;;;;;;19.90;15.35;;;;;;;;;;6956465;28;20049;-85
2021/06/11 19:26:07;;;;;;;15.50;13.85;;;;;;;;;;6963198;28;20048;-87
2021/06/11 19:29:32;;;;;;;16.67;12.18;;;;;;;;;;6961453;28;20127;-87
2021/06/11 19:33:01;;;;;;;20.73;14.60;;;;;;;;;;6963490;28;20757;-86
2021/06/11 19:36:21;;;;;;;26.52;16.05;;;;;;;;;;6972688;28;20488;-86
2021/06/11 19:39:47;;;;;;;19.52;15.30;;;;;;;;;;6968835;28;20135;-87
2021/06/11 19:43:09;;;;;;;16.00;13.02;;;;;;;;;;6965742;28;20515;-87
2021/06/11 19:46:34;;;;;;;14.52;11.93;;;;;;;;;;6957313;28;20056;-89
2021/06/11 19:50:04;;;;;;;18.85;14.75;;;;;;;;;;6960051;28;20048;-86
2021/06/11 19:53:36;;;;;;;26.65;21.42;;;;;;;;;;6949305;28;20484;-86
2021/06/11 19:56:56;;;;;;;24.75;18.50;;;;;;;;;;6965069;28;20056;-86
2021/06/11 20:00:17;;;;;;;20.80;17.20;;;;;;;;;;6967439;28;20123;-85
2021/06/11 20:03:40;;;;;;;24.55;16.80;;;;;;;;;;6971222;28;20045;-85
2021/06/11 20:07:01;;;;;;;26.73;15.02;;;;;;;;;;6968449;28;20095;-86
2021/06/11 20:10:21;;;;;;;22.08;17.27;;;;;;;;;;6990505;28;20060;-86
2021/06/11 20:13:43;;;;;;;24.10;17.20;;;;;;;;;;6966058;28;20491;-86
2021/06/11 20:17:04;;;;;;;23.17;16.27;;;;;;;;;;6955500;28;20037;-86
2021/06/11 20:20:24;;;;;;;20.27;18.13;;;;;;;;;;6958945;28;20373;-86
2021/06/11 20:23:45;;;;;;;22.30;17.45;;;;;;;;;;6960847;28;20056;-86